Time;durP1;ratioP1;P1;durP2;ratioP2;P2;SDS_P1;SDS_P2;PMS_P1;PMS_P2;Temp;Humidity;BMP_temperature;BMP_pressure;BME280_temperature;BME280_humidity;BME280_pressure;Samples;Min_cycle;Max_cycle;Signal;HPM_P1;HPM_P2
2022/03/04 00:00:59;;;;;;;26.37;20.03;;;;;;;1.06;100.00;100633.66;15344490;19;20179;-49
2022/03/04 00:15:57;;;;;;;28.70;19.33;;;;;;;1.12;100.00;100626.53;15168938;19;2939702;-50
2022/03/04 00:45:45;;;;;;;28.73;19.70;;;;;;;1.28;100.00;100617.44;15186030;19;2932064;-50
2022/03/04 00:55:47;;;;;;;25.97;18.57;;;;;;;1.37;100.00;100614.59;15348073;19;20504;-49
2022/03/04 01:15:39;;;;;;;26.57;17.50;;;;;;;1.49;100.00;100614.31;15348279;19;20460;-50
2022/03/04 01:20:44;;;;;;;29.50;20.23;;;;;;;1.53;100.00;100605.47;15346222;19;20145;-51
2022/03/04 01:35:45;;;;;;;28.13;20.50;;;;;;;1.47;100.00;100600.34;15348047;19;20450;-51
2022/03/04 01:40:50;;;;;;;28.00;19.87;;;;;;;1.45;100.00;100607.38;15352298;19;20541;-49
2022/03/04 01:45:55;;;;;;;31.83;21.47;;;;;;;1.45;100.00;100604.75;15322443;19;20139;-50
2022/03/04 01:55:57;;;;;;;28.07;19.17;;;;;;;1.43;100.00;100599.56;15347302;19;20485;-49
2022/03/04 02:05:59;;;;;;;23.73;18.73;;;;;;;1.52;100.00;100606.38;15336500;19;20937;-50
2022/03/04 02:45:49;;;;;;;28.57;19.03;;;;;;;1.60;100.00;100617.56;15348065;19;20494;-49
2022/03/04 02:50:54;;;;;;;28.17;19.67;;;;;;;1.52;100.00;100614.25;15339633;19;20133;-49
2022/03/04 02:55:59;;;;;;;28.63;20.43;;;;;;;1.53;100.00;100617.75;15317651;19;20142;-51
2022/03/04 03:50:38;;;;;;;24.77;18.13;;;;;;;1.49;100.00;100630.09;15347025;19;20493;-49
2022/03/04 04:25:22;;;;;;;23.17;16.07;;;;;;;1.66;100.00;100638.47;15161723;19;2946162;-49
2022/03/04 05:29:50;;;;;;;18.80;12.83;;;;;;;1.95;100.00;100677.25;15164339;19;2939470;-49
2022/03/04 05:34:54;;;;;;;19.33;14.27;;;;;;;1.90;100.00;100673.03;15323309;19;20170;-49
2022/03/04 05:49:55;;;;;;;21.90;15.27;;;;;;;1.82;100.00;100691.59;15334251;19;20502;-50
2022/03/04 05:59:54;;;;;;;18.67;14.60;;;;;;;1.77;100.00;100704.88;15178206;19;3168328;-50
2022/03/04 06:34:44;;;;;;;16.90;12.37;;;;;;;1.97;100.00;100728.09;15339960;19;20468;-49
2022/03/04 06:44:42;;;;;;;18.23;12.27;;;;;;;1.81;100.00;100740.72;15188784;19;2940569;-50
2022/03/04 07:09:35;;;;;;;15.77;13.10;;;;;;;1.89;100.00;100747.59;15344148;19;20510;-50
2022/03/04 07:19:37;;;;;;;16.97;11.90;;;;;;;2.10;100.00;100755.88;15343517;19;20467;-51
2022/03/04 07:54:30;;;;;;;16.53;12.00;;;;;;;2.41;100.00;100786.78;15349771;19;20458;-50
2022/03/04 07:59:35;;;;;;;17.40;13.93;;;;;;;2.67;100.00;100779.09;15355058;19;21111;-50
2022/03/04 08:04:39;;;;;;;16.00;12.97;;;;;;;2.80;100.00;100780.53;15346759;19;21009;-51
2022/03/04 08:09:44;;;;;;;16.70;13.53;;;;;;;2.93;100.00;100789.00;15317956;19;20149;-50
2022/03/04 08:19:42;;;;;;;16.87;13.63;;;;;;;3.25;100.00;100794.31;15193639;19;3035127;-51
2022/03/04 08:39:40;;;;;;;14.93;11.83;;;;;;;3.35;100.00;100820.44;15349229;19;20458;-50
2022/03/04 08:59:35;;;;;;;15.77;11.40;;;;;;;3.16;100.00;100826.16;15339767;19;20505;-50
2022/03/04 09:04:41;;;;;;;14.43;12.07;;;;;;;3.21;100.00;100840.13;15355178;19;20142;-52
2022/03/04 09:54:21;;;;;;;9.43;8.40;;;;;;;3.51;100.00;100859.53;15347870;19;20494;-49
2022/03/04 10:19:20;;;;;;;10.67;9.10;;;;;;;4.72;100.00;100859.50;15190847;19;2934923;-51
2022/03/04 10:24:33;;;;;;;9.27;7.70;;;;;;;4.59;100.00;100859.03;15309879;19;20144;-50
2022/03/04 10:29:43;;;;;;;9.13;7.87;;;;;;;4.23;100.00;100870.72;15344327;19;20147;-49
2022/03/04 10:40:01;;;;;;;13.00;11.07;;;;;;;3.88;100.00;100858.53;15317973;19;21255;-50
2022/03/04 10:45:11;;;;;;;10.73;8.77;;;;;;;3.98;100.00;100858.22;15279598;19;20154;-50
2022/03/04 10:50:16;;;;;;;10.30;9.20;;;;;;;4.11;100.00;100855.22;15292825;19;20199;-53
2022/03/04 11:00:29;;;;;;;12.77;9.47;;;;;;;3.61;100.00;100863.69;15301937;19;20481;-52
2022/03/04 11:05:34;;;;;;;14.03;10.73;;;;;;;3.39;100.00;100864.25;15289849;19;20164;-50
2022/03/04 11:10:40;;;;;;;14.00;11.03;;;;;;;3.33;100.00;100875.00;15283425;19;21231;-50
2022/03/04 11:15:45;;;;;;;14.70;11.50;;;;;;;3.26;100.00;100874.25;15301769;19;20936;-53
2022/03/04 11:20:54;;;;;;;16.27;12.80;;;;;;;3.26;100.00;100880.41;15308615;19;20163;-50
2022/03/04 11:26:03;;;;;;;15.47;11.63;;;;;;;3.29;100.00;100868.06;15301082;19;20181;-50
2022/03/04 11:41:03;;;;;;;17.10;11.87;;;;;;;3.67;100.00;100877.59;15305007;19;20481;-50
2022/03/04 11:51:26;;;;;;;15.83;12.53;;;;;;;3.62;100.00;100872.47;15283000;19;20557;-49
2022/03/04 12:01:30;;;;;;;16.37;12.87;;;;;;;4.18;100.00;100876.16;15300043;19;20527;-51
2022/03/04 12:11:33;;;;;;;11.93;10.60;;;;;;;4.97;100.00;100864.88;15318192;19;21227;-50
2022/03/04 12:26:39;;;;;;;12.83;9.40;;;;;;;5.83;100.00;100868.97;15345362;19;20571;-50
2022/03/04 12:31:45;;;;;;;9.47;8.00;;;;;;;6.07;100.00;100876.06;15351667;19;20162;-50
2022/03/04 12:36:53;;;;;;;11.27;8.43;;;;;;;5.91;100.00;100868.75;15321683;19;20173;-51
2022/03/04 12:51:50;;;;;;;12.93;9.77;;;;;;;5.77;100.00;100877.16;15194410;19;2961869;-51
2022/03/04 13:01:53;;;;;;;11.13;9.73;;;;;;;6.38;100.00;100866.97;15312105;19;21070;-51
2022/03/04 13:07:02;;;;;;;11.97;10.07;;;;;;;6.14;100.00;100874.94;15345615;19;20149;-51
2022/03/04 13:12:08;;;;;;;11.07;9.87;;;;;;;6.59;100.00;100870.56;15351108;19;20144;-52
2022/03/04 13:27:06;;;;;;;10.30;9.00;;;;;;;5.50;100.00;100860.44;15326102;19;20568;-51
2022/03/04 13:32:14;;;;;;;10.27;8.70;;;;;;;4.82;100.00;100870.69;15351617;19;20144;-50
2022/03/04 13:37:21;;;;;;;11.97;10.40;;;;;;;4.40;100.00;100873.72;15350761;19;20176;-50
2022/03/04 13:57:34;;;;;;;14.67;11.60;;;;;;;4.13;100.00;100871.88;15347643;19;20489;-50
2022/03/04 14:02:50;;;;;;;17.37;11.90;;;;;;;4.35;100.00;100871.22;15352195;19;20252;-50
2022/03/04 14:08:06;;;;;;;15.00;11.67;;;;;;;4.53;100.00;100869.81;15315696;19;20159;-50
2022/03/04 14:13:13;;;;;;;14.03;12.00;;;;;;;4.79;100.00;100873.41;15336594;19;20155;-50
2022/03/04 14:18:19;;;;;;;14.50;11.50;;;;;;;5.02;100.00;100878.84;15348685;19;20709;-50
2022/03/04 14:23:24;;;;;;;14.50;11.50;;;;;;;5.18;100.00;100885.34;15342922;19;20180;-50
2022/03/04 14:33:26;;;;;;;16.43;12.83;;;;;;;4.97;100.00;100880.75;15311703;19;20648;-51
2022/03/04 14:38:31;;;;;;;14.63;13.13;;;;;;;4.93;100.00;100882.66;15340395;19;20152;-50
2022/03/04 14:43:35;;;;;;;16.63;13.50;;;;;;;4.94;100.00;100883.50;15343507;19;20480;-50
2022/03/04 14:48:44;;;;;;;15.33;13.23;;;;;;;4.79;100.00;100891.94;15337364;19;20286;-50
2022/03/04 14:53:50;;;;;;;16.07;13.70;;;;;;;4.77;100.00;100899.03;15309616;19;20152;-50
2022/03/04 14:58:54;;;;;;;14.77;12.83;;;;;;;4.74;100.00;100894.69;15334459;19;20152;-50
2022/03/04 15:03:59;;;;;;;14.57;13.03;;;;;;;4.71;100.00;100895.66;15340709;19;20145;-50
2022/03/04 15:09:04;;;;;;;16.07;13.23;;;;;;;4.52;100.00;100909.50;15321809;19;20144;-51
2022/03/04 15:19:26;;;;;;;18.00;14.87;;;;;;;4.01;100.00;100909.22;15280638;19;20504;-51
2022/03/04 15:49:22;;;;;;;13.73;11.30;;;;;;;3.97;100.00;100919.88;15297034;19;20473;-51
2022/03/04 15:54:28;;;;;;;13.03;11.10;;;;;;;3.88;100.00;100922.75;15297860;19;20144;-50
2022/03/04 16:19:21;;;;;;;20.70;15.17;;;;;;;3.66;100.00;100926.00;15276691;19;20480;-53
2022/03/04 16:29:23;;;;;;;54.07;30.40;;;;;;;3.55;100.00;100940.34;15288844;19;20534;-49
2022/03/04 16:34:28;;;;;;;39.00;23.10;;;;;;;3.53;100.00;100947.44;15302599;19;20696;-51
2022/03/04 16:44:28;;;;;;;21.57;15.20;;;;;;;3.41;100.00;100946.88;15115345;19;2947607;-49
2022/03/04 17:09:21;;;;;;;11.17;6.57;;;;;;;3.19;100.00;100986.09;15113879;19;2988591;-51
2022/03/04 17:14:25;;;;;;;9.73;6.40;;;;;;;3.14;100.00;100983.56;15304467;19;20156;-52
2022/03/04 17:34:18;;;;;;;8.47;6.93;;;;;;;3.03;100.00;100977.66;15136912;19;2949847;-51
2022/03/04 17:54:16;;;;;;;13.07;8.63;;;;;;;2.98;100.00;100987.47;15270756;19;20510;-53
2022/03/04 17:59:21;;;;;;;10.50;8.03;;;;;;;2.93;100.00;100997.22;15294165;19;20191;-51
2022/03/04 18:29:16;;;;;;;36.47;18.37;;;;;;;2.53;100.00;101000.75;15300589;19;20536;-51
2022/03/04 18:34:21;;;;;;;27.75;19.38;;;;;;;2.96;100.00;101007.72;15290055;19;20396;-50
2022/03/04 18:44:43;;;;;;;13.10;9.00;;;;;;;2.53;100.00;101008.66;15299634;19;20144;-50
2022/03/04 18:49:49;;;;;;;8.60;6.90;;;;;;;2.42;100.00;101015.88;15304020;19;20162;-54
2022/03/04 18:54:54;;;;;;;9.30;5.77;;;;;;;2.24;100.00;101023.28;15307369;19;20143;-53
2022/03/04 18:59:58;;;;;;;7.53;5.13;;;;;;;2.05;100.00;101025.38;15276298;19;20261;-51
2022/03/04 19:05:11;;;;;;;6.33;5.17;;;;;;;1.93;100.00;101033.50;15288469;19;20166;-50
2022/03/04 19:10:17;;;;;;;8.13;6.07;;;;;;;1.74;100.00;101028.53;15293650;19;20648;-51
2022/03/04 19:20:21;;;;;;;9.53;6.30;;;;;;;1.30;100.00;101012.63;15279717;19;20498;-51
2022/03/04 19:55:12;;;;;;;11.57;8.57;;;;;;;0.24;100.00;101043.78;15293232;19;21266;-49
2022/03/04 20:05:13;;;;;;;14.97;9.30;;;;;;;0.20;100.00;101032.44;15124995;19;2955913;-50
2022/03/04 20:15:16;;;;;;;20.17;11.00;;;;;;;0.25;100.00;101025.34;15296391;19;20632;-51
2022/03/04 20:25:18;;;;;;;15.03;10.53;;;;;;;0.19;100.00;101030.69;15295320;19;20482;-50
2022/03/04 20:35:20;;;;;;;14.77;10.90;;;;;;;-0.23;100.00;101024.09;15288506;19;21100;-49
2022/03/04 20:40:25;;;;;;;19.60;11.20;;;;;;;-0.44;100.00;101017.28;15303534;19;20528;-49
2022/03/04 20:50:28;;;;;;;17.80;11.77;;;;;;;-0.48;100.00;101038.28;15280948;19;20456;-50
2022/03/04 20:55:33;;;;;;;21.97;12.63;;;;;;;-0.25;100.00;101043.38;15285213;19;20159;-49
2022/03/04 22:10:26;;;;;;;17.10;11.70;;;;;;;0.62;100.00;101053.81;15345402;19;20513;-49
2022/03/04 22:30:21;;;;;;;18.23;12.50;;;;;;;0.67;100.00;101062.53;15345449;19;20486;-49
2022/03/04 23:15:00;;;;;;;15.32;9.88;;;;;;;0.75;100.00;101071.16;15196309;19;2923854;-52
2022/03/04 23:25:04;;;;;;;15.90;10.27;;;;;;;0.77;100.00;101072.03;15339704;19;20445;-53
2022/03/04 23:50:00;;;;;;;13.90;9.30;;;;;;;0.72;100.00;101081.75;15320358;19;20462;-50
